sensor_id;sensor_type;location;lat;lon;timestamp;P1;durP1;ratioP1;P2;durP2;ratioP2
58260;SDS011;44058;52.898;6.502;2023-08-20T00:00:43;11.02;;;4.90;;
58260;SDS011;44058;52.898;6.502;2023-08-20T00:03:12;7.18;;;3.78;;
58260;SDS011;44058;52.898;6.502;2023-08-20T00:05:39;9.50;;;4.30;;
58260;SDS011;44058;52.898;6.502;2023-08-20T00:08:05;6.80;;;4.00;;
58260;SDS011;44058;52.898;6.502;2023-08-20T00:10:32;7.18;;;3.47;;
58260;SDS011;44058;52.898;6.502;2023-08-20T00:12:58;9.15;;;5.03;;
58260;SDS011;44058;52.898;6.502;2023-08-20T00:15:24;9.10;;;4.70;;
58260;SDS011;44058;52.898;6.502;2023-08-20T00:17:54;6.13;;;4.18;;
58260;SDS011;44058;52.898;6.502;2023-08-20T00:20:21;5.43;;;4.00;;
58260;SDS011;44058;52.898;6.502;2023-08-20T00:22:47;6.22;;;4.03;;
58260;SDS011;44058;52.898;6.502;2023-08-20T00:25:14;6.60;;;4.15;;
58260;SDS011;44058;52.898;6.502;2023-08-20T00:27:41;9.15;;;4.82;;
58260;SDS011;44058;52.898;6.502;2023-08-20T00:30:07;6.22;;;3.80;;
58260;SDS011;44058;52.898;6.502;2023-08-20T00:32:33;8.65;;;5.00;;
58260;SDS011;44058;52.898;6.502;2023-08-20T00:35:00;5.78;;;2.90;;
58260;SDS011;44058;52.898;6.502;2023-08-20T00:37:27;3.22;;;2.58;;
58260;SDS011;44058;52.898;6.502;2023-08-20T00:39:54;3.08;;;2.50;;
58260;SDS011;44058;52.898;6.502;2023-08-20T00:42:20;4.80;;;3.17;;
58260;SDS011;44058;52.898;6.502;2023-08-20T00:44:46;7.25;;;3.63;;
58260;SDS011;44058;52.898;6.502;2023-08-20T00:47:12;5.97;;;4.20;;
58260;SDS011;44058;52.898;6.502;2023-08-20T00:49:39;8.63;;;4.80;;
58260;SDS011;44058;52.898;6.502;2023-08-20T00:52:07;4.80;;;2.78;;
58260;SDS011;44058;52.898;6.502;2023-08-20T00:54:34;5.75;;;4.22;;
58260;SDS011;44058;52.898;6.502;2023-08-20T00:57:01;4.50;;;3.03;;
58260;SDS011;44058;52.898;6.502;2023-08-20T00:59:28;3.78;;;2.83;;
58260;SDS011;44058;52.898;6.502;2023-08-20T01:01:55;6.57;;;3.00;;
58260;SDS011;44058;52.898;6.502;2023-08-20T01:04:21;6.15;;;3.00;;
58260;SDS011;44058;52.898;6.502;2023-08-20T01:06:53;3.03;;;2.72;;
58260;SDS011;44058;52.898;6.502;2023-08-20T01:09:34;7.55;;;3.17;;
58260;SDS011;44058;52.898;6.502;2023-08-20T01:12:03;5.55;;;3.90;;
58260;SDS011;44058;52.898;6.502;2023-08-20T01:14:29;4.55;;;3.83;;
58260;SDS011;44058;52.898;6.502;2023-08-20T01:16:55;10.07;;;5.65;;
58260;SDS011;44058;52.898;6.502;2023-08-20T01:19:22;11.38;;;6.28;;
58260;SDS011;44058;52.898;6.502;2023-08-20T01:29:50;5.63;;;3.85;;
58260;SDS011;44058;52.898;6.502;2023-08-20T01:32:16;3.63;;;2.35;;
58260;SDS011;44058;52.898;6.502;2023-08-20T01:34:43;3.78;;;2.70;;
58260;SDS011;44058;52.898;6.502;2023-08-20T01:37:10;4.22;;;3.13;;
58260;SDS011;44058;52.898;6.502;2023-08-20T01:39:36;4.85;;;3.50;;
58260;SDS011;44058;52.898;6.502;2023-08-20T01:42:03;5.03;;;4.25;;
58260;SDS011;44058;52.898;6.502;2023-08-20T01:44:29;4.15;;;3.08;;
58260;SDS011;44058;52.898;6.502;2023-08-20T01:46:55;5.65;;;3.83;;
58260;SDS011;44058;52.898;6.502;2023-08-20T01:49:21;5.05;;;3.88;;
58260;SDS011;44058;52.898;6.502;2023-08-20T01:51:48;6.05;;;4.15;;
58260;SDS011;44058;52.898;6.502;2023-08-20T01:54:14;7.05;;;4.95;;
58260;SDS011;44058;52.898;6.502;2023-08-20T01:56:40;6.50;;;4.20;;
58260;SDS011;44058;52.898;6.502;2023-08-20T01:59:06;5.25;;;4.50;;
58260;SDS011;44058;52.898;6.502;2023-08-20T02:01:32;4.05;;;3.67;;
58260;SDS011;44058;52.898;6.502;2023-08-20T02:03:58;5.00;;;3.85;;
58260;SDS011;44058;52.898;6.502;2023-08-20T02:06:24;4.18;;;3.70;;
58260;SDS011;44058;52.898;6.502;2023-08-20T02:08:50;4.43;;;3.92;;
58260;SDS011;44058;52.898;6.502;2023-08-20T02:11:17;5.32;;;4.40;;
58260;SDS011;44058;52.898;6.502;2023-08-20T02:13:43;3.47;;;2.97;;
58260;SDS011;44058;52.898;6.502;2023-08-20T02:16:09;3.80;;;3.40;;
58260;SDS011;44058;52.898;6.502;2023-08-20T02:18:35;5.55;;;3.78;;
58260;SDS011;44058;52.898;6.502;2023-08-20T02:21:01;5.80;;;4.55;;
58260;SDS011;44058;52.898;6.502;2023-08-20T02:23:27;5.72;;;3.70;;
58260;SDS011;44058;52.898;6.502;2023-08-20T02:25:53;5.57;;;4.72;;
58260;SDS011;44058;52.898;6.502;2023-08-20T02:28:19;6.72;;;5.32;;
58260;SDS011;44058;52.898;6.502;2023-08-20T02:30:46;4.80;;;3.75;;
58260;SDS011;44058;52.898;6.502;2023-08-20T02:33:12;6.10;;;4.03;;
58260;SDS011;44058;52.898;6.502;2023-08-20T02:35:39;4.80;;;4.00;;
58260;SDS011;44058;52.898;6.502;2023-08-20T02:38:05;5.25;;;4.30;;
58260;SDS011;44058;52.898;6.502;2023-08-20T02:40:32;6.70;;;4.78;;
58260;SDS011;44058;52.898;6.502;2023-08-20T02:42:58;8.55;;;5.38;;
58260;SDS011;44058;52.898;6.502;2023-08-20T02:45:24;5.85;;;4.90;;
58260;SDS011;44058;52.898;6.502;2023-08-20T02:47:50;5.07;;;4.57;;
58260;SDS011;44058;52.898;6.502;2023-08-20T02:50:16;10.02;;;7.05;;
58260;SDS011;44058;52.898;6.502;2023-08-20T02:52:43;9.50;;;5.93;;
58260;SDS011;44058;52.898;6.502;2023-08-20T02:55:09;9.05;;;6.13;;
58260;SDS011;44058;52.898;6.502;2023-08-20T02:57:35;9.02;;;5.53;;
58260;SDS011;44058;52.898;6.502;2023-08-20T03:00:01;7.55;;;5.85;;
58260;SDS011;44058;52.898;6.502;2023-08-20T03:02:28;9.25;;;6.00;;
58260;SDS011;44058;52.898;6.502;2023-08-20T03:04:54;8.45;;;5.30;;
58260;SDS011;44058;52.898;6.502;2023-08-20T03:07:21;5.63;;;4.50;;
58260;SDS011;44058;52.898;6.502;2023-08-20T03:09:48;8.20;;;4.78;;
58260;SDS011;44058;52.898;6.502;2023-08-20T03:12:14;9.48;;;6.00;;
58260;SDS011;44058;52.898;6.502;2023-08-20T03:14:40;9.30;;;7.00;;
58260;SDS011;44058;52.898;6.502;2023-08-20T03:17:06;9.02;;;6.10;;
58260;SDS011;44058;52.898;6.502;2023-08-20T03:19:33;11.18;;;7.10;;
58260;SDS011;44058;52.898;6.502;2023-08-20T03:22:02;7.10;;;5.30;;
58260;SDS011;44058;52.898;6.502;2023-08-20T03:24:28;12.23;;;6.20;;
58260;SDS011;44058;52.898;6.502;2023-08-20T03:26:54;10.93;;;6.22;;
58260;SDS011;44058;52.898;6.502;2023-08-20T03:29:20;8.32;;;5.68;;
58260;SDS011;44058;52.898;6.502;2023-08-20T03:31:46;7.47;;;5.05;;
58260;SDS011;44058;52.898;6.502;2023-08-20T03:34:12;10.73;;;6.32;;
58260;SDS011;44058;52.898;6.502;2023-08-20T03:36:39;9.75;;;5.90;;
58260;SDS011;44058;52.898;6.502;2023-08-20T03:39:05;9.48;;;5.82;;
58260;SDS011;44058;52.898;6.502;2023-08-20T03:41:31;6.63;;;5.40;;
58260;SDS011;44058;52.898;6.502;2023-08-20T03:43:57;6.90;;;5.32;;
58260;SDS011;44058;52.898;6.502;2023-08-20T03:46:23;9.88;;;6.13;;
58260;SDS011;44058;52.898;6.502;2023-08-20T03:48:49;6.85;;;5.82;;
58260;SDS011;44058;52.898;6.502;2023-08-20T03:51:15;6.93;;;5.78;;
58260;SDS011;44058;52.898;6.502;2023-08-20T03:53:42;8.02;;;5.93;;
58260;SDS011;44058;52.898;6.502;2023-08-20T03:56:08;9.70;;;6.38;;
58260;SDS011;44058;52.898;6.502;2023-08-20T03:58:34;8.95;;;5.90;;
58260;SDS011;44058;52.898;6.502;2023-08-20T04:01:00;8.65;;;6.13;;
58260;SDS011;44058;52.898;6.502;2023-08-20T04:03:26;8.43;;;6.15;;
58260;SDS011;44058;52.898;6.502;2023-08-20T04:05:53;7.78;;;6.20;;
58260;SDS011;44058;52.898;6.502;2023-08-20T04:08:19;12.88;;;6.78;;
58260;SDS011;44058;52.898;6.502;2023-08-20T04:10:45;9.60;;;5.60;;
58260;SDS011;44058;52.898;6.502;2023-08-20T04:13:11;9.35;;;6.50;;
58260;SDS011;44058;52.898;6.502;2023-08-20T04:15:39;6.50;;;4.65;;
58260;SDS011;44058;52.898;6.502;2023-08-20T04:18:06;8.23;;;5.20;;
58260;SDS011;44058;52.898;6.502;2023-08-20T04:20:33;6.82;;;4.70;;
58260;SDS011;44058;52.898;6.502;2023-08-20T04:22:59;5.07;;;4.38;;
58260;SDS011;44058;52.898;6.502;2023-08-20T04:25:25;6.28;;;4.75;;
58260;SDS011;44058;52.898;6.502;2023-08-20T04:27:52;8.60;;;5.30;;
58260;SDS011;44058;52.898;6.502;2023-08-20T04:30:18;6.25;;;5.30;;
58260;SDS011;44058;52.898;6.502;2023-08-20T04:32:45;4.22;;;3.90;;
58260;SDS011;44058;52.898;6.502;2023-08-20T04:35:11;5.18;;;3.80;;
58260;SDS011;44058;52.898;6.502;2023-08-20T04:37:37;4.53;;;3.63;;
58260;SDS011;44058;52.898;6.502;2023-08-20T04:40:03;6.03;;;4.38;;
58260;SDS011;44058;52.898;6.502;2023-08-20T04:42:30;6.40;;;4.68;;
58260;SDS011;44058;52.898;6.502;2023-08-20T04:44:56;6.57;;;5.15;;
58260;SDS011;44058;52.898;6.502;2023-08-20T04:47:22;5.53;;;4.65;;
58260;SDS011;44058;52.898;6.502;2023-08-20T04:49:48;4.40;;;3.10;;
58260;SDS011;44058;52.898;6.502;2023-08-20T04:52:14;4.10;;;3.70;;
58260;SDS011;44058;52.898;6.502;2023-08-20T04:54:41;5.60;;;3.72;;
58260;SDS011;44058;52.898;6.502;2023-08-20T04:57:07;3.95;;;3.55;;
58260;SDS011;44058;52.898;6.502;2023-08-20T04:59:33;4.07;;;3.13;;
58260;SDS011;44058;52.898;6.502;2023-08-20T05:02:00;3.33;;;3.08;;
58260;SDS011;44058;52.898;6.502;2023-08-20T05:04:26;3.22;;;3.00;;
58260;SDS011;44058;52.898;6.502;2023-08-20T05:06:52;3.92;;;3.40;;
58260;SDS011;44058;52.898;6.502;2023-08-20T05:09:18;5.50;;;3.92;;
58260;SDS011;44058;52.898;6.502;2023-08-20T05:11:44;4.38;;;3.78;;
58260;SDS011;44058;52.898;6.502;2023-08-20T05:14:10;4.78;;;4.10;;
58260;SDS011;44058;52.898;6.502;2023-08-20T05:16:36;6.05;;;3.80;;
58260;SDS011;44058;52.898;6.502;2023-08-20T05:19:02;4.38;;;3.90;;
58260;SDS011;44058;52.898;6.502;2023-08-20T05:21:28;5.72;;;4.47;;
58260;SDS011;44058;52.898;6.502;2023-08-20T05:23:54;7.25;;;6.40;;
58260;SDS011;44058;52.898;6.502;2023-08-20T05:26:21;11.00;;;6.68;;
58260;SDS011;44058;52.898;6.502;2023-08-20T05:28:48;8.48;;;6.72;;
58260;SDS011;44058;52.898;6.502;2023-08-20T05:31:14;7.57;;;6.30;;
58260;SDS011;44058;52.898;6.502;2023-08-20T05:33:40;9.98;;;6.65;;
58260;SDS011;44058;52.898;6.502;2023-08-20T05:36:06;11.77;;;5.80;;
58260;SDS011;44058;52.898;6.502;2023-08-20T05:38:32;10.55;;;6.35;;
58260;SDS011;44058;52.898;6.502;2023-08-20T05:40:58;9.88;;;6.35;;
58260;SDS011;44058;52.898;6.502;2023-08-20T05:43:24;6.93;;;5.18;;
58260;SDS011;44058;52.898;6.502;2023-08-20T05:45:50;7.72;;;6.13;;
58260;SDS011;44058;52.898;6.502;2023-08-20T05:48:16;13.57;;;8.57;;
58260;SDS011;44058;52.898;6.502;2023-08-20T05:50:42;9.80;;;8.68;;
58260;SDS011;44058;52.898;6.502;2023-08-20T05:53:09;10.40;;;7.55;;
58260;SDS011;44058;52.898;6.502;2023-08-20T05:55:36;10.68;;;8.15;;
58260;SDS011;44058;52.898;6.502;2023-08-20T05:58:02;11.93;;;7.88;;
58260;SDS011;44058;52.898;6.502;2023-08-20T06:00:28;11.20;;;7.93;;
58260;SDS011;44058;52.898;6.502;2023-08-20T06:02:54;16.50;;;8.32;;
58260;SDS011;44058;52.898;6.502;2023-08-20T06:05:20;10.68;;;8.65;;
58260;SDS011;44058;52.898;6.502;2023-08-20T06:07:46;9.68;;;7.97;;
58260;SDS011;44058;52.898;6.502;2023-08-20T06:10:12;11.30;;;8.95;;
58260;SDS011;44058;52.898;6.502;2023-08-20T06:12:38;12.07;;;8.50;;
58260;SDS011;44058;52.898;6.502;2023-08-20T06:15:04;15.38;;;8.00;;
58260;SDS011;44058;52.898;6.502;2023-08-20T06:17:31;12.38;;;7.13;;
58260;SDS011;44058;52.898;6.502;2023-08-20T06:19:57;10.38;;;7.10;;
58260;SDS011;44058;52.898;6.502;2023-08-20T06:22:23;11.45;;;6.80;;
58260;SDS011;44058;52.898;6.502;2023-08-20T06:24:49;11.10;;;6.15;;
58260;SDS011;44058;52.898;6.502;2023-08-20T06:27:15;14.93;;;6.85;;
58260;SDS011;44058;52.898;6.502;2023-08-20T06:29:42;9.02;;;7.10;;
58260;SDS011;44058;52.898;6.502;2023-08-20T06:32:08;9.25;;;6.22;;
58260;SDS011;44058;52.898;6.502;2023-08-20T06:34:34;13.65;;;5.90;;
58260;SDS011;44058;52.898;6.502;2023-08-20T06:37:01;10.23;;;6.03;;
58260;SDS011;44058;52.898;6.502;2023-08-20T06:39:27;11.38;;;5.90;;
58260;SDS011;44058;52.898;6.502;2023-08-20T06:41:53;10.57;;;5.80;;
58260;SDS011;44058;52.898;6.502;2023-08-20T06:44:19;10.70;;;5.38;;
58260;SDS011;44058;52.898;6.502;2023-08-20T06:46:46;12.65;;;5.50;;
58260;SDS011;44058;52.898;6.502;2023-08-20T06:49:12;11.65;;;5.18;;
58260;SDS011;44058;52.898;6.502;2023-08-20T06:51:38;9.60;;;5.05;;
58260;SDS011;44058;52.898;6.502;2023-08-20T06:54:04;8.23;;;4.90;;
58260;SDS011;44058;52.898;6.502;2023-08-20T06:56:34;7.55;;;5.20;;
58260;SDS011;44058;52.898;6.502;2023-08-20T06:59:00;9.05;;;5.00;;
58260;SDS011;44058;52.898;6.502;2023-08-20T07:01:28;9.38;;;5.22;;
58260;SDS011;44058;52.898;6.502;2023-08-20T07:03:54;10.18;;;4.68;;
58260;SDS011;44058;52.898;6.502;2023-08-20T07:06:20;9.05;;;4.38;;
58260;SDS011;44058;52.898;6.502;2023-08-20T07:08:46;7.10;;;3.90;;
58260;SDS011;44058;52.898;6.502;2023-08-20T07:11:12;9.02;;;4.13;;
58260;SDS011;44058;52.898;6.502;2023-08-20T07:13:38;12.05;;;4.53;;
58260;SDS011;44058;52.898;6.502;2023-08-20T07:16:04;10.10;;;4.68;;
58260;SDS011;44058;52.898;6.502;2023-08-20T07:18:30;11.35;;;4.18;;
58260;SDS011;44058;52.898;6.502;2023-08-20T07:20:56;13.25;;;4.68;;
58260;SDS011;44058;52.898;6.502;2023-08-20T07:23:22;9.38;;;4.65;;
58260;SDS011;44058;52.898;6.502;2023-08-20T07:25:49;11.02;;;4.90;;
58260;SDS011;44058;52.898;6.502;2023-08-20T07:28:17;8.65;;;4.55;;
58260;SDS011;44058;52.898;6.502;2023-08-20T07:30:52;13.48;;;4.85;;
58260;SDS011;44058;52.898;6.502;2023-08-20T07:33:18;12.13;;;4.55;;
58260;SDS011;44058;52.898;6.502;2023-08-20T07:35:44;14.32;;;5.13;;
58260;SDS011;44058;52.898;6.502;2023-08-20T07:38:10;13.75;;;4.60;;
58260;SDS011;44058;52.898;6.502;2023-08-20T07:40:36;13.13;;;4.75;;
58260;SDS011;44058;52.898;6.502;2023-08-20T07:43:02;16.40;;;5.30;;
58260;SDS011;44058;52.898;6.502;2023-08-20T07:45:28;11.40;;;4.35;;
58260;SDS011;44058;52.898;6.502;2023-08-20T07:47:54;9.90;;;4.50;;
58260;SDS011;44058;52.898;6.502;2023-08-20T07:50:20;11.18;;;4.05;;
58260;SDS011;44058;52.898;6.502;2023-08-20T07:52:47;11.15;;;3.78;;
58260;SDS011;44058;52.898;6.502;2023-08-20T07:55:13;9.57;;;3.97;;
58260;SDS011;44058;52.898;6.502;2023-08-20T07:57:39;13.48;;;4.15;;
58260;SDS011;44058;52.898;6.502;2023-08-20T08:00:06;8.93;;;3.25;;
58260;SDS011;44058;52.898;6.502;2023-08-20T08:02:32;7.72;;;4.10;;
58260;SDS011;44058;52.898;6.502;2023-08-20T08:04:58;10.52;;;3.75;;
58260;SDS011;44058;52.898;6.502;2023-08-20T08:07:24;9.57;;;3.50;;
58260;SDS011;44058;52.898;6.502;2023-08-20T08:09:50;12.43;;;3.33;;
58260;SDS011;44058;52.898;6.502;2023-08-20T08:12:16;10.27;;;3.20;;
58260;SDS011;44058;52.898;6.502;2023-08-20T08:14:42;6.97;;;2.75;;
58260;SDS011;44058;52.898;6.502;2023-08-20T08:17:09;11.13;;;3.28;;
58260;SDS011;44058;52.898;6.502;2023-08-20T08:19:35;11.32;;;3.30;;
58260;SDS011;44058;52.898;6.502;2023-08-20T08:22:01;12.50;;;3.50;;
58260;SDS011;44058;52.898;6.502;2023-08-20T08:24:28;11.93;;;3.55;;
58260;SDS011;44058;52.898;6.502;2023-08-20T08:26:54;7.30;;;3.13;;
58260;SDS011;44058;52.898;6.502;2023-08-20T08:29:20;10.65;;;3.08;;
58260;SDS011;44058;52.898;6.502;2023-08-20T08:31:46;8.25;;;2.83;;
58260;SDS011;44058;52.898;6.502;2023-08-20T08:34:12;8.57;;;2.97;;
58260;SDS011;44058;52.898;6.502;2023-08-20T08:36:39;7.50;;;2.15;;
58260;SDS011;44058;52.898;6.502;2023-08-20T08:39:05;9.75;;;2.92;;
58260;SDS011;44058;52.898;6.502;2023-08-20T08:41:32;9.75;;;2.17;;
58260;SDS011;44058;52.898;6.502;2023-08-20T08:46:27;8.85;;;2.85;;
58260;SDS011;44058;52.898;6.502;2023-08-20T08:48:53;10.57;;;2.58;;
58260;SDS011;44058;52.898;6.502;2023-08-20T08:51:20;7.82;;;2.17;;
58260;SDS011;44058;52.898;6.502;2023-08-20T08:53:46;7.95;;;2.70;;
58260;SDS011;44058;52.898;6.502;2023-08-20T08:56:12;8.38;;;2.58;;
58260;SDS011;44058;52.898;6.502;2023-08-20T08:58:39;6.22;;;2.08;;
58260;SDS011;44058;52.898;6.502;2023-08-20T09:01:05;7.80;;;2.58;;
58260;SDS011;44058;52.898;6.502;2023-08-20T09:03:32;9.45;;;2.20;;
58260;SDS011;44058;52.898;6.502;2023-08-20T09:06:00;4.47;;;1.67;;
58260;SDS011;44058;52.898;6.502;2023-08-20T09:08:29;4.93;;;1.92;;
58260;SDS011;44058;52.898;6.502;2023-08-20T09:10:56;6.45;;;2.13;;
58260;SDS011;44058;52.898;6.502;2023-08-20T09:13:26;6.70;;;1.80;;
58260;SDS011;44058;52.898;6.502;2023-08-20T09:15:58;7.68;;;1.83;;
58260;SDS011;44058;52.898;6.502;2023-08-20T09:18:24;7.43;;;2.30;;
58260;SDS011;44058;52.898;6.502;2023-08-20T09:20:50;3.75;;;1.80;;
58260;SDS011;44058;52.898;6.502;2023-08-20T09:23:16;5.88;;;1.75;;
58260;SDS011;44058;52.898;6.502;2023-08-20T09:25:43;7.03;;;2.03;;
58260;SDS011;44058;52.898;6.502;2023-08-20T09:28:10;8.90;;;1.83;;
58260;SDS011;44058;52.898;6.502;2023-08-20T09:30:36;7.75;;;2.45;;
58260;SDS011;44058;52.898;6.502;2023-08-20T09:33:07;5.25;;;2.05;;
58260;SDS011;44058;52.898;6.502;2023-08-20T09:38:00;9.05;;;1.98;;
58260;SDS011;44058;52.898;6.502;2023-08-20T09:40:26;5.78;;;1.42;;
58260;SDS011;44058;52.898;6.502;2023-08-20T09:42:53;7.32;;;1.75;;
58260;SDS011;44058;52.898;6.502;2023-08-20T09:45:20;6.82;;;1.70;;
58260;SDS011;44058;52.898;6.502;2023-08-20T09:47:48;5.28;;;1.70;;
58260;SDS011;44058;52.898;6.502;2023-08-20T09:50:16;5.57;;;1.60;;
58260;SDS011;44058;52.898;6.502;2023-08-20T09:52:58;5.75;;;1.58;;
58260;SDS011;44058;52.898;6.502;2023-08-20T09:55:30;5.13;;;1.73;;
58260;SDS011;44058;52.898;6.502;2023-08-20T09:58:01;4.68;;;1.45;;
58260;SDS011;44058;52.898;6.502;2023-08-20T10:00:29;8.40;;;1.98;;
58260;SDS011;44058;52.898;6.502;2023-08-20T10:02:56;5.15;;;1.77;;
58260;SDS011;44058;52.898;6.502;2023-08-20T10:05:22;6.53;;;1.73;;
58260;SDS011;44058;52.898;6.502;2023-08-20T10:07:49;3.78;;;1.13;;
58260;SDS011;44058;52.898;6.502;2023-08-20T10:10:15;5.65;;;1.60;;
58260;SDS011;44058;52.898;6.502;2023-08-20T10:12:42;3.78;;;1.42;;
58260;SDS011;44058;52.898;6.502;2023-08-20T10:15:13;5.03;;;1.45;;
58260;SDS011;44058;52.898;6.502;2023-08-20T10:17:41;6.35;;;1.88;;
58260;SDS011;44058;52.898;6.502;2023-08-20T10:20:07;4.70;;;1.42;;
58260;SDS011;44058;52.898;6.502;2023-08-20T10:22:38;6.90;;;1.63;;
58260;SDS011;44058;52.898;6.502;2023-08-20T10:25:09;3.63;;;1.65;;
58260;SDS011;44058;52.898;6.502;2023-08-20T10:27:38;6.13;;;1.67;;
58260;SDS011;44058;52.898;6.502;2023-08-20T10:30:11;4.85;;;1.15;;
58260;SDS011;44058;52.898;6.502;2023-08-20T10:35:27;3.85;;;1.10;;
58260;SDS011;44058;52.898;6.502;2023-08-20T10:48:41;6.68;;;1.23;;
58260;SDS011;44058;52.898;6.502;2023-08-20T10:51:11;2.55;;;0.80;;
58260;SDS011;44058;52.898;6.502;2023-08-20T10:53:38;3.45;;;0.98;;
58260;SDS011;44058;52.898;6.502;2023-08-20T10:56:07;4.82;;;1.50;;
58260;SDS011;44058;52.898;6.502;2023-08-20T10:58:33;7.13;;;1.20;;
58260;SDS011;44058;52.898;6.502;2023-08-20T11:01:20;3.70;;;0.88;;
58260;SDS011;44058;52.898;6.502;2023-08-20T11:03:46;5.00;;;1.40;;
58260;SDS011;44058;52.898;6.502;2023-08-20T11:06:13;4.50;;;1.33;;
58260;SDS011;44058;52.898;6.502;2023-08-20T11:08:40;3.92;;;1.15;;
58260;SDS011;44058;52.898;6.502;2023-08-20T11:11:07;2.65;;;1.00;;
58260;SDS011;44058;52.898;6.502;2023-08-20T11:13:33;1.88;;;0.80;;
58260;SDS011;44058;52.898;6.502;2023-08-20T11:16:03;4.78;;;1.00;;
58260;SDS011;44058;52.898;6.502;2023-08-20T11:18:30;3.63;;;1.10;;
58260;SDS011;44058;52.898;6.502;2023-08-20T11:20:56;4.68;;;0.95;;
58260;SDS011;44058;52.898;6.502;2023-08-20T11:23:23;3.95;;;1.20;;
58260;SDS011;44058;52.898;6.502;2023-08-20T11:25:50;5.10;;;1.35;;
58260;SDS011;44058;52.898;6.502;2023-08-20T11:28:16;3.53;;;0.95;;
58260;SDS011;44058;52.898;6.502;2023-08-20T11:30:42;4.38;;;1.13;;
58260;SDS011;44058;52.898;6.502;2023-08-20T11:33:08;3.17;;;0.93;;
58260;SDS011;44058;52.898;6.502;2023-08-20T11:35:35;2.10;;;1.00;;
58260;SDS011;44058;52.898;6.502;2023-08-20T11:38:02;5.18;;;1.33;;
58260;SDS011;44058;52.898;6.502;2023-08-20T11:40:29;2.72;;;1.10;;
58260;SDS011;44058;52.898;6.502;2023-08-20T11:42:55;4.15;;;1.00;;
58260;SDS011;44058;52.898;6.502;2023-08-20T11:45:21;3.67;;;1.63;;
58260;SDS011;44058;52.898;6.502;2023-08-20T11:47:48;4.85;;;1.33;;
58260;SDS011;44058;52.898;6.502;2023-08-20T11:50:14;3.25;;;1.23;;
58260;SDS011;44058;52.898;6.502;2023-08-20T11:52:40;3.70;;;0.90;;
58260;SDS011;44058;52.898;6.502;2023-08-20T11:55:06;3.83;;;1.25;;
58260;SDS011;44058;52.898;6.502;2023-08-20T11:57:33;2.25;;;0.77;;
58260;SDS011;44058;52.898;6.502;2023-08-20T12:00:05;3.83;;;0.90;;
58260;SDS011;44058;52.898;6.502;2023-08-20T12:02:41;2.67;;;0.90;;
58260;SDS011;44058;52.898;6.502;2023-08-20T12:05:07;3.65;;;0.80;;
58260;SDS011;44058;52.898;6.502;2023-08-20T12:07:33;3.08;;;1.10;;
58260;SDS011;44058;52.898;6.502;2023-08-20T12:10:06;5.00;;;0.90;;
58260;SDS011;44058;52.898;6.502;2023-08-20T12:12:44;5.60;;;1.40;;
58260;SDS011;44058;52.898;6.502;2023-08-20T12:15:10;4.88;;;0.90;;
58260;SDS011;44058;52.898;6.502;2023-08-20T12:17:38;3.00;;;0.97;;
58260;SDS011;44058;52.898;6.502;2023-08-20T12:20:04;3.40;;;1.08;;
58260;SDS011;44058;52.898;6.502;2023-08-20T12:22:37;5.03;;;1.15;;
58260;SDS011;44058;52.898;6.502;2023-08-20T12:25:03;2.97;;;0.73;;
58260;SDS011;44058;52.898;6.502;2023-08-20T12:27:29;4.10;;;0.90;;
58260;SDS011;44058;52.898;6.502;2023-08-20T12:29:55;3.60;;;1.08;;
58260;SDS011;44058;52.898;6.502;2023-08-20T12:32:22;1.70;;;0.65;;
58260;SDS011;44058;52.898;6.502;2023-08-20T12:34:48;5.05;;;0.90;;
58260;SDS011;44058;52.898;6.502;2023-08-20T12:37:14;4.38;;;1.02;;
58260;SDS011;44058;52.898;6.502;2023-08-20T12:39:40;4.00;;;1.20;;
58260;SDS011;44058;52.898;6.502;2023-08-20T12:42:06;3.63;;;0.90;;
58260;SDS011;44058;52.898;6.502;2023-08-20T12:44:33;4.40;;;1.05;;
58260;SDS011;44058;52.898;6.502;2023-08-20T12:46:59;4.78;;;1.08;;
58260;SDS011;44058;52.898;6.502;2023-08-20T12:49:25;2.55;;;0.80;;
58260;SDS011;44058;52.898;6.502;2023-08-20T12:51:51;2.42;;;0.77;;
58260;SDS011;44058;52.898;6.502;2023-08-20T12:54:17;2.38;;;0.90;;
58260;SDS011;44058;52.898;6.502;2023-08-20T12:56:43;3.10;;;1.25;;
58260;SDS011;44058;52.898;6.502;2023-08-20T12:59:09;3.70;;;1.05;;
58260;SDS011;44058;52.898;6.502;2023-08-20T13:01:35;4.80;;;1.17;;
58260;SDS011;44058;52.898;6.502;2023-08-20T13:04:02;3.60;;;1.00;;
58260;SDS011;44058;52.898;6.502;2023-08-20T13:06:29;2.72;;;1.10;;
58260;SDS011;44058;52.898;6.502;2023-08-20T13:08:55;3.80;;;1.17;;
58260;SDS011;44058;52.898;6.502;2023-08-20T13:11:21;2.45;;;0.90;;
58260;SDS011;44058;52.898;6.502;2023-08-20T13:13:51;3.50;;;1.17;;
58260;SDS011;44058;52.898;6.502;2023-08-20T13:16:18;3.70;;;1.05;;
58260;SDS011;44058;52.898;6.502;2023-08-20T13:18:45;4.28;;;1.25;;
58260;SDS011;44058;52.898;6.502;2023-08-20T13:21:11;6.18;;;1.50;;
58260;SDS011;44058;52.898;6.502;2023-08-20T13:23:37;4.72;;;1.60;;
58260;SDS011;44058;52.898;6.502;2023-08-20T13:26:03;4.45;;;1.35;;
58260;SDS011;44058;52.898;6.502;2023-08-20T13:28:29;4.68;;;1.80;;
58260;SDS011;44058;52.898;6.502;2023-08-20T13:30:55;5.47;;;1.77;;
58260;SDS011;44058;52.898;6.502;2023-08-20T13:33:21;3.80;;;1.60;;
58260;SDS011;44058;52.898;6.502;2023-08-20T13:35:47;3.80;;;1.50;;
58260;SDS011;44058;52.898;6.502;2023-08-20T13:38:13;3.70;;;1.58;;
58260;SDS011;44058;52.898;6.502;2023-08-20T13:40:40;5.72;;;1.70;;
58260;SDS011;44058;52.898;6.502;2023-08-20T13:43:06;3.88;;;1.50;;
58260;SDS011;44058;52.898;6.502;2023-08-20T13:45:34;5.53;;;1.70;;
58260;SDS011;44058;52.898;6.502;2023-08-20T13:48:00;4.95;;;1.70;;
58260;SDS011;44058;52.898;6.502;2023-08-20T13:50:26;2.88;;;1.35;;
58260;SDS011;44058;52.898;6.502;2023-08-20T13:52:52;3.85;;;1.60;;
58260;SDS011;44058;52.898;6.502;2023-08-20T13:55:18;5.20;;;1.52;;
58260;SDS011;44058;52.898;6.502;2023-08-20T13:57:46;3.38;;;1.52;;
58260;SDS011;44058;52.898;6.502;2023-08-20T14:00:12;3.42;;;1.63;;
58260;SDS011;44058;52.898;6.502;2023-08-20T14:02:39;4.75;;;1.80;;
58260;SDS011;44058;52.898;6.502;2023-08-20T14:05:06;4.63;;;1.70;;
58260;SDS011;44058;52.898;6.502;2023-08-20T14:07:32;4.35;;;1.60;;
58260;SDS011;44058;52.898;6.502;2023-08-20T14:10:02;3.95;;;1.88;;
58260;SDS011;44058;52.898;6.502;2023-08-20T14:12:31;4.00;;;1.48;;
58260;SDS011;44058;52.898;6.502;2023-08-20T14:14:58;2.85;;;1.48;;
58260;SDS011;44058;52.898;6.502;2023-08-20T14:17:24;4.38;;;1.48;;
58260;SDS011;44058;52.898;6.502;2023-08-20T14:19:50;3.45;;;1.73;;
58260;SDS011;44058;52.898;6.502;2023-08-20T14:22:16;3.33;;;1.20;;
58260;SDS011;44058;52.898;6.502;2023-08-20T14:24:42;5.78;;;1.60;;
58260;SDS011;44058;52.898;6.502;2023-08-20T14:27:09;3.13;;;1.35;;
58260;SDS011;44058;52.898;6.502;2023-08-20T14:29:35;5.07;;;1.20;;
58260;SDS011;44058;52.898;6.502;2023-08-20T14:32:01;5.22;;;1.38;;
58260;SDS011;44058;52.898;6.502;2023-08-20T14:34:27;2.45;;;0.95;;
58260;SDS011;44058;52.898;6.502;2023-08-20T14:36:54;3.00;;;1.20;;
58260;SDS011;44058;52.898;6.502;2023-08-20T14:39:20;2.20;;;0.90;;
58260;SDS011;44058;52.898;6.502;2023-08-20T14:41:46;2.25;;;1.00;;
58260;SDS011;44058;52.898;6.502;2023-08-20T14:44:12;4.82;;;1.20;;
58260;SDS011;44058;52.898;6.502;2023-08-20T14:46:38;3.67;;;0.98;;
58260;SDS011;44058;52.898;6.502;2023-08-20T14:49:04;4.55;;;0.90;;
58260;SDS011;44058;52.898;6.502;2023-08-20T14:51:30;3.28;;;1.70;;
58260;SDS011;44058;52.898;6.502;2023-08-20T14:53:56;3.85;;;1.10;;
58260;SDS011;44058;52.898;6.502;2023-08-20T14:56:22;2.42;;;0.77;;
58260;SDS011;44058;52.898;6.502;2023-08-20T14:58:49;2.20;;;0.80;;
58260;SDS011;44058;52.898;6.502;2023-08-20T15:01:15;2.83;;;1.30;;
58260;SDS011;44058;52.898;6.502;2023-08-20T15:03:42;2.03;;;0.90;;
58260;SDS011;44058;52.898;6.502;2023-08-20T15:06:09;2.60;;;0.90;;
58260;SDS011;44058;52.898;6.502;2023-08-20T15:08:35;3.78;;;0.80;;